createdAt,value
2023-03-02T00:02:47.683Z,99.90
2023-03-02T00:06:59.575Z,99.90
2023-03-02T00:11:08.207Z,99.90
2023-03-02T00:15:16.828Z,99.90
2023-03-02T00:19:25.377Z,99.90
2023-03-02T00:23:54.608Z,99.90
2023-03-02T00:28:03.332Z,1.00
2023-03-02T00:32:31.355Z,1.00
2023-03-02T00:36:40.482Z,1.00
2023-03-02T00:40:52.124Z,1.00
2023-03-02T00:45:01.669Z,1.00
2023-03-02T00:49:10.286Z,1.00
2023-03-02T00:53:19.031Z,1.00
2023-03-02T00:57:27.658Z,1.00
2023-03-02T01:01:37.425Z,1.00
2023-03-02T01:05:46.089Z,1.00
2023-03-02T01:09:55.002Z,1.00
2023-03-02T01:14:03.717Z,1.00
2023-03-02T01:18:13.165Z,1.00
2023-03-02T01:22:22.539Z,1.00
2023-03-02T01:26:31.409Z,1.00
2023-03-02T01:30:40.087Z,1.00
2023-03-02T01:34:48.634Z,1.00
2023-03-02T01:38:57.204Z,1.00
2023-03-02T01:43:08.929Z,1.00
2023-03-02T01:47:26.567Z,1.00
2023-03-02T01:51:41.103Z,1.00
2023-03-02T01:55:50.034Z,1.00
2023-03-02T02:00:01.699Z,1.00
2023-03-02T02:04:11.265Z,1.00
2023-03-02T02:08:20.054Z,1.00
2023-03-02T02:12:48.039Z,1.00
2023-03-02T02:16:56.744Z,1.00
2023-03-02T02:21:06.454Z,1.00
2023-03-02T02:25:20.902Z,1.00
2023-03-02T02:29:33.048Z,1.00
2023-03-02T02:33:45.291Z,1.00
2023-03-02T02:37:56.807Z,1.00
2023-03-02T02:42:07.934Z,1.00
2023-03-02T02:46:17.211Z,1.00
2023-03-02T02:50:31.863Z,1.00
2023-03-02T02:54:40.641Z,1.00
2023-03-02T02:58:52.232Z,1.00
2023-03-02T03:03:03.827Z,1.00
2023-03-02T03:07:18.295Z,1.00
2023-03-02T03:11:32.065Z,1.00
2023-03-02T03:15:40.695Z,1.00
2023-03-02T03:19:49.333Z,1.00
2023-03-02T03:23:57.886Z,1.00
2023-03-02T03:28:06.497Z,1.00
2023-03-02T03:32:15.435Z,1.00
2023-03-02T03:36:24.643Z,1.00
2023-03-02T03:40:35.215Z,1.00
2023-03-02T03:44:43.845Z,1.00
2023-03-02T03:48:52.455Z,1.00
2023-03-02T03:53:03.417Z,1.00
2023-03-02T03:57:12.244Z,1.00
2023-03-02T04:01:22.984Z,1.00
2023-03-02T04:05:31.868Z,1.00
2023-03-02T04:09:41.287Z,1.00
2023-03-02T04:13:50.071Z,1.00
2023-03-02T04:17:58.586Z,1.00
2023-03-02T04:22:07.223Z,1.00
2023-03-02T04:26:16.256Z,1.00
2023-03-02T04:30:27.655Z,1.00
2023-03-02T04:34:36.591Z,1.00
2023-03-02T04:38:45.326Z,1.00
2023-03-02T04:42:53.958Z,1.00
2023-03-02T04:47:02.468Z,1.00
2023-03-02T04:51:21.790Z,1.00
2023-03-02T04:55:30.411Z,1.00
2023-03-02T04:59:39.171Z,1.00
2023-03-02T05:03:48.153Z,1.00
2023-03-02T05:07:58.445Z,1.00
2023-03-02T05:12:07.208Z,1.00
2023-03-02T05:16:15.976Z,1.00
2023-03-02T05:20:44.209Z,1.00
2023-03-02T05:24:52.809Z,1.00
2023-03-02T05:29:01.449Z,1.00
2023-03-02T05:33:10.310Z,1.00
2023-03-02T05:37:39.997Z,1.00
2023-03-02T05:41:48.619Z,1.00
2023-03-02T05:45:58.989Z,1.00
2023-03-02T05:50:08.506Z,1.00
2023-03-02T05:54:17.166Z,1.00
2023-03-02T05:58:25.797Z,1.00
2023-03-02T06:02:34.421Z,1.00
2023-03-02T06:06:43.051Z,1.00
2023-03-02T06:10:53.150Z,1.00
2023-03-02T06:15:01.739Z,1.00
2023-03-02T06:19:10.368Z,1.00
2023-03-02T06:23:19.003Z,1.00
2023-03-02T06:27:27.514Z,1.00
2023-03-02T06:31:36.271Z,1.00
2023-03-02T06:35:44.844Z,1.00
2023-03-02T06:39:53.457Z,1.00
2023-03-02T06:44:02.379Z,1.00
2023-03-02T06:48:10.983Z,1.00
2023-03-02T06:52:19.504Z,1.00
2023-03-02T06:56:28.337Z,1.00
2023-03-02T07:00:36.891Z,1.00
2023-03-02T07:04:45.479Z,1.00
2023-03-02T07:08:54.017Z,1.00
2023-03-02T07:13:02.756Z,1.00
2023-03-02T07:17:12.455Z,1.00
2023-03-02T07:21:21.126Z,1.00
2023-03-02T07:25:29.757Z,1.00
2023-03-02T07:29:38.280Z,1.00
2023-03-02T07:33:46.803Z,1.00
2023-03-02T07:37:55.644Z,1.00
2023-03-02T07:42:06.671Z,1.00
2023-03-02T07:46:19.691Z,1.00
2023-03-02T07:50:28.374Z,1.00
2023-03-02T07:54:37.022Z,1.00
2023-03-02T07:58:45.543Z,1.00
2023-03-02T08:02:54.121Z,1.00
2023-03-02T08:07:02.702Z,1.00
2023-03-02T08:11:16.913Z,1.00
2023-03-02T08:15:25.477Z,1.00
2023-03-02T08:19:34.107Z,1.00
2023-03-02T08:23:43.266Z,1.00
2023-03-02T08:27:51.889Z,1.00
2023-03-02T08:32:01.162Z,1.00
2023-03-02T08:36:29.153Z,99.90
2023-03-02T08:40:37.747Z,99.90
2023-03-02T08:44:46.341Z,99.90
2023-03-02T08:48:54.878Z,99.90
2023-03-02T08:53:03.624Z,99.90
2023-03-02T08:57:13.326Z,99.90
2023-03-02T09:01:30.920Z,99.90
2023-03-02T09:05:39.858Z,99.90
2023-03-02T09:09:48.484Z,99.90
2023-03-02T09:13:57.442Z,99.90
2023-03-02T09:18:06.247Z,99.90
2023-03-02T09:22:14.808Z,99.90
2023-03-02T09:26:23.724Z,99.90
2023-03-02T09:30:52.719Z,99.90
2023-03-02T09:35:01.661Z,99.90
2023-03-02T09:39:11.857Z,99.90
2023-03-02T09:43:45.054Z,99.90
2023-03-02T09:48:08.446Z,99.90
2023-03-02T09:52:38.436Z,99.90
2023-03-02T09:56:50.341Z,99.90
2023-03-02T10:01:03.636Z,99.90
2023-03-02T10:05:20.642Z,99.90
2023-03-02T10:09:29.370Z,99.90
2023-03-02T10:13:47.455Z,99.90
2023-03-02T10:18:04.606Z,99.90
2023-03-02T10:22:37.709Z,99.90
2023-03-02T10:26:48.938Z,99.90
2023-03-02T10:31:21.135Z,99.90
2023-03-02T10:35:50.842Z,99.90
2023-03-02T10:39:59.468Z,99.90
2023-03-02T10:44:16.634Z,99.90
2023-03-02T10:48:25.196Z,99.90
2023-03-02T10:52:35.066Z,99.90
2023-03-02T10:56:45.849Z,99.90
2023-03-02T11:01:06.157Z,99.90
2023-03-02T11:05:23.798Z,99.90
2023-03-02T11:09:32.498Z,99.90
2023-03-02T11:13:41.142Z,99.90
2023-03-02T11:18:02.151Z,99.90
2023-03-02T11:22:22.653Z,99.90
2023-03-02T11:26:55.288Z,99.90
2023-03-02T11:31:07.102Z,99.90
2023-03-02T11:35:24.659Z,99.90
2023-03-02T11:39:55.941Z,99.90
2023-03-02T11:44:10.570Z,99.90
2023-03-02T11:48:40.033Z,99.90
2023-03-02T11:52:54.670Z,99.90
2023-03-02T11:57:03.912Z,99.90
2023-03-02T12:01:15.509Z,99.90
2023-03-02T12:05:27.202Z,99.90
2023-03-02T12:09:38.328Z,99.90
2023-03-02T12:13:52.698Z,99.90
2023-03-02T12:18:01.343Z,99.90
2023-03-02T12:22:19.986Z,99.90
2023-03-02T12:26:47.818Z,99.90
2023-03-02T12:31:08.641Z,99.90
2023-03-02T12:35:22.566Z,99.90
2023-03-02T12:39:46.215Z,99.90
2023-03-02T12:44:03.702Z,99.90
2023-03-02T12:48:30.821Z,99.90
2023-03-02T12:52:39.469Z,99.90
2023-03-02T12:56:48.994Z,99.90
2023-03-02T13:01:03.165Z,99.90
2023-03-02T13:05:14.954Z,99.90
2023-03-02T13:09:24.572Z,99.90
2023-03-02T13:13:37.069Z,99.90
2023-03-02T13:17:47.840Z,99.90
2023-03-02T13:21:56.766Z,99.90
2023-03-02T13:26:06.448Z,99.90
2023-03-02T13:30:27.754Z,99.90
2023-03-02T13:34:37.011Z,99.90
2023-03-02T13:38:48.618Z,99.90
2023-03-02T13:42:57.663Z,99.90
2023-03-02T13:47:07.742Z,99.90
2023-03-02T13:51:21.761Z,99.90
2023-03-02T13:55:30.474Z,99.90
2023-03-02T13:59:39.040Z,99.90
2023-03-02T14:03:47.617Z,99.90
2023-03-02T14:07:56.221Z,99.90
2023-03-02T14:12:06.816Z,99.90
2023-03-02T14:16:17.237Z,99.90
2023-03-02T14:20:25.905Z,99.90
2023-03-02T14:24:34.630Z,99.90
2023-03-02T14:28:43.259Z,99.90
2023-03-02T14:32:51.850Z,99.90
2023-03-02T14:37:02.904Z,99.90
2023-03-02T14:41:34.424Z,99.90
2023-03-02T14:45:41.112Z,99.90
2023-03-02T14:49:49.737Z,99.90
2023-03-02T14:54:01.950Z,99.90
2023-03-02T14:58:16.949Z,99.90
2023-03-02T15:02:26.951Z,99.90
2023-03-02T15:06:55.393Z,99.90
2023-03-02T15:11:04.042Z,99.90
2023-03-02T15:15:13.526Z,99.90
2023-03-02T15:19:22.198Z,99.90
2023-03-02T15:23:30.830Z,99.90
2023-03-02T15:27:39.461Z,99.90
2023-03-02T15:31:48.213Z,99.90
2023-03-02T15:35:56.769Z,99.90
2023-03-02T15:40:05.638Z,99.90
2023-03-02T15:44:18.906Z,99.90
2023-03-02T15:48:29.312Z,99.90
2023-03-02T15:52:37.873Z,99.90
2023-03-02T15:56:50.022Z,99.90
2023-03-02T16:00:58.352Z,99.90
2023-03-02T16:05:07.757Z,99.90
2023-03-02T16:09:16.389Z,99.90
2023-03-02T16:13:25.018Z,99.90
2023-03-02T16:17:33.535Z,99.90
2023-03-02T16:21:42.540Z,99.90
2023-03-02T16:25:51.417Z,99.90
2023-03-02T16:29:59.996Z,99.90
2023-03-02T16:34:10.612Z,99.90
2023-03-02T16:38:21.113Z,99.90
2023-03-02T16:42:30.541Z,99.90
2023-03-02T16:46:43.659Z,99.90
2023-03-02T16:50:59.183Z,99.90
2023-03-02T16:55:10.955Z,99.90
2023-03-02T16:59:19.595Z,99.90
2023-03-02T17:03:28.224Z,99.90
2023-03-02T17:07:36.892Z,99.90
2023-03-02T17:11:45.443Z,99.90
2023-03-02T17:15:54.433Z,99.90
2023-03-02T17:20:03.101Z,99.90
2023-03-02T17:24:11.705Z,99.90
2023-03-02T17:28:39.868Z,99.90
2023-03-02T17:32:48.800Z,99.90
2023-03-02T17:36:57.937Z,99.90
2023-03-02T17:41:10.699Z,1.00
2023-03-02T17:45:25.156Z,1.00
2023-03-02T17:49:53.110Z,1.00
2023-03-02T17:54:01.749Z,1.00
2023-03-02T17:58:10.468Z,1.00
2023-03-02T18:02:19.677Z,1.00
2023-03-02T18:06:29.259Z,1.00
2023-03-02T18:10:37.790Z,1.00
2023-03-02T18:14:46.649Z,1.00
2023-03-02T18:18:56.000Z,1.00
2023-03-02T18:23:04.721Z,1.00
2023-03-02T18:27:13.332Z,1.00
2023-03-02T18:31:22.517Z,1.00
2023-03-02T18:35:31.092Z,1.00
2023-03-02T18:39:39.697Z,1.00
2023-03-02T18:43:49.774Z,1.00
2023-03-02T18:47:59.258Z,1.00
2023-03-02T18:52:09.685Z,1.00
2023-03-02T18:56:18.904Z,1.00
2023-03-02T19:00:48.287Z,1.00
2023-03-02T19:04:56.829Z,1.00
2023-03-02T19:09:05.399Z,1.00
2023-03-02T19:13:15.540Z,1.00
2023-03-02T19:17:24.935Z,1.00
2023-03-02T19:21:33.456Z,1.00
2023-03-02T19:25:42.597Z,1.00
2023-03-02T19:29:51.149Z,1.00
2023-03-02T19:34:00.381Z,1.00
2023-03-02T19:38:10.225Z,1.00
2023-03-02T19:42:18.850Z,1.00
2023-03-02T19:46:27.482Z,1.00
2023-03-02T19:50:36.210Z,1.00
2023-03-02T19:54:44.747Z,1.00
2023-03-02T19:58:54.249Z,1.00
2023-03-02T20:03:03.192Z,1.00
2023-03-02T20:07:12.054Z,1.00
2023-03-02T20:11:21.296Z,1.00
2023-03-02T20:15:30.924Z,1.00
2023-03-02T20:19:39.478Z,1.00
2023-03-02T20:23:49.081Z,1.00
2023-03-02T20:27:58.420Z,1.00
2023-03-02T20:32:09.247Z,1.00
2023-03-02T20:36:20.566Z,1.00
2023-03-02T20:40:31.330Z,1.00
2023-03-02T20:44:40.073Z,1.00
2023-03-02T20:48:49.600Z,1.00
2023-03-02T20:52:58.241Z,1.00
2023-03-02T20:57:08.685Z,1.00
2023-03-02T21:01:18.975Z,1.00
2023-03-02T21:05:29.701Z,1.00
2023-03-02T21:09:38.377Z,41.70
2023-03-02T21:13:48.711Z,1.00
2023-03-02T21:17:59.529Z,12.10
2023-03-02T21:22:08.126Z,52.40
2023-03-02T21:26:18.952Z,99.90
2023-03-02T21:30:47.077Z,99.90
2023-03-02T21:34:55.754Z,99.90
2023-03-02T21:39:06.580Z,99.90
2023-03-02T21:43:16.492Z,99.90
2023-03-02T21:47:25.119Z,99.90
2023-03-02T21:51:33.975Z,99.90
2023-03-02T21:55:44.187Z,99.90
2023-03-02T21:59:54.635Z,99.90
2023-03-02T22:04:03.227Z,99.90
2023-03-02T22:08:14.852Z,99.90
2023-03-02T22:12:24.139Z,99.90
2023-03-02T22:16:38.590Z,99.90
2023-03-02T22:20:50.128Z,99.90
2023-03-02T22:25:00.692Z,99.90
2023-03-02T22:29:18.257Z,1.00
2023-03-02T22:33:29.679Z,1.00
2023-03-02T22:37:38.229Z,1.00
2023-03-02T22:41:46.806Z,1.00
2023-03-02T22:45:57.150Z,1.00
2023-03-02T22:50:27.355Z,99.90
2023-03-02T22:54:55.274Z,93.70
2023-03-02T22:59:22.448Z,53.70
2023-03-02T23:03:42.784Z,1.00
2023-03-02T23:07:52.319Z,1.00
2023-03-02T23:12:15.733Z,1.00
2023-03-02T23:16:30.498Z,1.00
2023-03-02T23:20:39.479Z,99.90
2023-03-02T23:24:48.322Z,99.90
2023-03-02T23:28:57.125Z,6.50
2023-03-02T23:33:06.115Z,21.70
2023-03-02T23:37:14.809Z,1.00
2023-03-02T23:41:42.749Z,99.90
2023-03-02T23:45:51.666Z,99.90
2023-03-02T23:50:00.469Z,99.90
2023-03-02T23:54:09.003Z,99.90
2023-03-02T23:58:18.200Z,99.90
